Time;durP1;ratioP1;P1;durP2;ratioP2;P2;SDS_P1;SDS_P2;PMS_P1;PMS_P2;Temp;Humidity;BMP_temperature;BMP_pressure;BME280_temperature;BME280_humidity;BME280_pressure;Samples;Min_cycle;Max_cycle;Signal;HPM_P1;HPM_P2
2022/06/16 00:00:38;;;;;;;;;;;;;;;;;;2090055;28;19920;-45
2022/06/16 00:01:39;;;;;;;;;;;;;;;;;;2090001;28;20027;-46
2022/06/16 00:02:40;;;;;;;;;;;;;;;;;;2089964;28;20011;-45
2022/06/16 00:03:41;;;;;;;;;;;;;;;;;;2090087;28;19967;-46
2022/06/16 00:04:46;;;;;;;;;;;;;;;;;;2090008;28;19920;-45
2022/06/16 00:05:47;;;;;;;;;;;;;;;;;;2089928;28;20365;-45
2022/06/16 00:06:49;;;;;;;;;;;;;;;;;;2089935;28;20003;-45
2022/06/16 00:07:49;;;;;;;;;;;;;;;;;;2090099;28;20471;-45
2022/06/16 00:08:50;;;;;;;;;;;;;;;;;;2089917;28;19970;-45
2022/06/16 00:09:51;;;;;;;;;;;;;;;;;;2090065;28;19920;-45
2022/06/16 00:12:11;;;;;;;;;;;;;;;;;;2081636;28;20008;-45
2022/06/16 00:13:13;;;;;;;;;;;;;;;;;;2081767;28;19928;-45
2022/06/16 00:14:14;;;;;;;;;;;;;;;;;;2081884;28;19964;-43
2022/06/16 00:15:14;;;;;;;;;;;;;;;;;;2088086;28;20011;-43
2022/06/16 00:16:15;;;;;;;;;;;;;;;;;;2089725;28;19963;-42
2022/06/16 00:17:16;;;;;;;;;;;;;;;;;;2090107;28;20384;-43
2022/06/16 00:18:17;;;;;;;;;;;;;;;;;;2090038;28;20011;-43
2022/06/16 00:19:18;;;;;;;;;;;;;;;;;;2089936;28;20011;-43
2022/06/16 00:20:19;;;;;;;;;;;;;;;;;;2089815;28;20378;-43
2022/06/16 00:21:20;;;;;;;;;;;;;;;;;;2090016;28;19926;-43
2022/06/16 00:22:21;;;;;;;;;;;;;;;;;;2089754;28;19927;-43
2022/06/16 00:23:21;;;;;;;;;;;;;;;;;;2089848;28;19921;-42
2022/06/16 00:24:26;;;;;;;;;;;;;;;;;;2089864;28;19983;-42
2022/06/16 00:25:27;;;;;;;;;;;;;;;;;;2089785;28;19973;-42
2022/06/16 00:26:28;;;;;;;;;;;;;;;;;;2089466;28;20401;-42
2022/06/16 00:27:29;;;;;;;;;;;;;;;;;;2089236;28;19924;-42
2022/06/16 00:28:30;;;;;;;;;;;;;;;;;;2089783;28;19994;-42
2022/06/16 00:29:30;;;;;;;;;;;;;;;;;;2089897;28;19921;-43
2022/06/16 00:30:31;;;;;;;;;;;;;;;;;;2089908;28;20279;-43
2022/06/16 00:31:32;;;;;;;;;;;;;;;;;;2089788;28;20024;-43
2022/06/16 00:32:33;;;;;;;;;;;;;;;;;;2089799;28;19970;-43
2022/06/16 00:33:34;;;;;;;;;;;;;;;;;;2089910;28;19959;-43
2022/06/16 00:34:35;;;;;;;;;;;;;;;;;;2089768;28;20063;-44
2022/06/16 00:35:36;;;;;;;;;;;;;;;;;;2089864;28;19967;-43
2022/06/16 00:36:37;;;;;;;;;;;;;;;;;;2089619;28;19939;-43
2022/06/16 00:37:38;;;;;;;;;;;;;;;;;;2089820;28;20337;-44
2022/06/16 00:38:39;;;;;;;;;;;;;;;;;;2089858;28;19928;-44
2022/06/16 00:39:40;;;;;;;;;;;;;;;;;;2089846;28;20031;-43
2022/06/16 00:40:41;;;;;;;;;;;;;;;;;;2089789;28;20023;-43
2022/06/16 00:41:42;;;;;;;;;;;;;;;;;;2089657;28;19982;-43
2022/06/16 00:42:43;;;;;;;;;;;;;;;;;;2089835;28;19963;-43
2022/06/16 00:43:43;;;;;;;;;;;;;;;;;;2089624;28;19920;-43
2022/06/16 00:44:44;;;;;;;;;;;;;;;;;;2089820;28;19920;-43
2022/06/16 00:45:45;;;;;;;;;;;;;;;;;;2090040;28;20004;-46
2022/06/16 00:46:46;;;;;;;;;;;;;;;;;;2089651;28;19944;-45
2022/06/16 00:47:47;;;;;;;;;;;;;;;;;;2089750;28;19928;-46
2022/06/16 00:48:48;;;;;;;;;;;;;;;;;;2089910;28;19951;-46
2022/06/16 00:49:49;;;;;;;;;;;;;;;;;;2089689;28;19925;-46
2022/06/16 00:50:50;;;;;;;;;;;;;;;;;;2089722;28;19924;-46
2022/06/16 00:51:51;;;;;;;;;;;;;;;;;;2089729;28;20062;-45
2022/06/16 00:52:52;;;;;;;;;;;;;;;;;;2091746;28;20299;-46
2022/06/16 00:53:53;;;;;;;;;;;;;;;;;;2098071;28;19999;-46
2022/06/16 00:54:53;;;;;;;;;;;;;;;;;;2097873;28;19931;-45
2022/06/16 00:55:54;;;;;;;;;;;;;;;;;;2097928;28;19927;-46
2022/06/16 00:56:55;;;;;;;;;;;;;;;;;;2097874;28;20316;-47
2022/06/16 00:57:56;;;;;;;;;;;;;;;;;;2097910;28;20406;-45
2022/06/16 00:58:57;;;;;;;;;;;;;;;;;;2097952;28;19921;-47
2022/06/16 00:59:58;;;;;;;;;;;;;;;;;;2097993;28;20287;-47
2022/06/16 01:00:59;;;;;;;;;;;;;;;;;;2097828;28;19920;-46
2022/06/16 01:02:00;;;;;;;;;;;;;;;;;;2097835;28;19969;-46
2022/06/16 01:03:01;;;;;;;;;;;;;;;;;;2097952;28;19966;-46
2022/06/16 01:05:23;;;;;;;;;;;;;;;;;;2098125;28;20003;-47
2022/06/16 01:06:23;;;;;;;;;;;;;;;;;;2098141;28;20011;-46
2022/06/16 01:07:24;;;;;;;;;;;;;;;;;;2097827;28;20019;-45
2022/06/16 01:08:25;;;;;;;;;;;;;;;;;;2097993;28;19963;-46
2022/06/16 01:09:26;;;;;;;;;;;;;;;;;;2097964;28;19921;-46
2022/06/16 01:10:27;;;;;;;;;;;;;;;;;;2097824;28;19920;-46
2022/06/16 01:14:06;;;;;;;;;;;;;;;;;;2089651;28;19921;-46
2022/06/16 01:15:07;;;;;;;;;;;;;;;;;;2089557;28;20012;-47
2022/06/16 01:16:08;;;;;;;;;;;;;;;;;;2089627;28;20289;-46
2022/06/16 01:17:09;;;;;;;;;;;;;;;;;;2089410;28;20290;-45
2022/06/16 01:18:10;;;;;;;;;;;;;;;;;;2089658;28;19924;-46
2022/06/16 01:19:11;;;;;;;;;;;;;;;;;;2089733;28;20015;-46
2022/06/16 01:20:12;;;;;;;;;;;;;;;;;;2089559;28;19947;-46
2022/06/16 01:21:12;;;;;;;;;;;;;;;;;;2089365;28;19921;-46
2022/06/16 01:22:13;;;;;;;;;;;;;;;;;;2089492;28;19921;-46
2022/06/16 01:23:15;;;;;;;;;;;;;;;;;;2089468;28;19986;-47
2022/06/16 01:24:16;;;;;;;;;;;;;;;;;;2089523;28;19924;-46
2022/06/16 01:25:16;;;;;;;;;;;;;;;;;;2089624;28;19928;-46
2022/06/16 01:26:17;;;;;;;;;;;;;;;;;;2089358;28;20320;-46
2022/06/16 01:27:18;;;;;;;;;;;;;;;;;;2089479;28;20331;-46
2022/06/16 01:28:19;;;;;;;;;;;;;;;;;;2089483;28;19956;-46
2022/06/16 01:29:20;;;;;;;;;;;;;;;;;;2089595;28;20363;-45
2022/06/16 01:30:21;;;;;;;;;;;;;;;;;;2089445;28;20027;-46
2022/06/16 01:31:22;;;;;;;;;;;;;;;;;;2089538;28;19921;-46
2022/06/16 01:32:23;;;;;;;;;;;;;;;;;;2089390;28;20297;-46
2022/06/16 01:33:23;;;;;;;;;;;;;;;;;;2089409;28;20028;-46
2022/06/16 01:34:24;;;;;;;;;;;;;;;;;;2089654;28;19928;-45
2022/06/16 01:35:26;;;;;;;;;;;;;;;;;;2089607;28;20015;-46
2022/06/16 01:36:27;;;;;;;;;;;;;;;;;;2089366;28;20271;-46
2022/06/16 01:37:28;;;;;;;;;;;;;;;;;;2089357;28;20492;-45
2022/06/16 01:38:29;;;;;;;;;;;;;;;;;;2090372;28;20013;-46
2022/06/16 01:39:30;;;;;;;;;;;;;;;;;;2090912;28;20014;-46
2022/06/16 01:40:31;;;;;;;;;;;;;;;;;;2091014;28;19920;-46
2022/06/16 01:41:32;;;;;;;;;;;;;;;;;;2090719;28;20007;-47
2022/06/16 01:42:33;;;;;;;;;;;;;;;;;;2091262;28;20011;-46
2022/06/16 01:43:34;;;;;;;;;;;;;;;;;;2091106;28;19959;-43
2022/06/16 01:44:35;;;;;;;;;;;;;;;;;;2090916;28;19928;-44
2022/06/16 01:45:37;;;;;;;;;;;;;;;;;;2090864;28;19921;-44
2022/06/16 01:46:38;;;;;;;;;;;;;;;;;;2091076;28;20011;-45
2022/06/16 01:47:39;;;;;;;;;;;;;;;;;;2091120;28;19921;-47
2022/06/16 01:48:41;;;;;;;;;;;;;;;;;;2090630;28;19932;-47
2022/06/16 01:49:42;;;;;;;;;;;;;;;;;;2090860;28;20016;-45
2022/06/16 01:50:43;;;;;;;;;;;;;;;;;;2090827;28;19927;-47
2022/06/16 01:51:43;;;;;;;;;;;;;;;;;;2091029;28;20019;-43
2022/06/16 01:52:45;;;;;;;;;;;;;;;;;;2091004;28;20366;-46
2022/06/16 01:53:46;;;;;;;;;;;;;;;;;;2090870;28;19927;-46
2022/06/16 01:54:47;;;;;;;;;;;;;;;;;;2091102;28;19927;-43
2022/06/16 01:55:54;;;;;;;;;;;;;;;;;;2090777;28;19920;-44
2022/06/16 01:56:55;;;;;;;;;;;;;;;;;;2090863;28;20393;-45
2022/06/16 01:57:56;;;;;;;;;;;;;;;;;;2090997;28;20012;-46
2022/06/16 01:58:57;;;;;;;;;;;;;;;;;;2090906;28;19943;-42
2022/06/16 01:59:57;;;;;;;;;;;;;;;;;;2090759;28;20070;-43
2022/06/16 02:00:59;;;;;;;;;;;;;;;;;;2090901;28;19989;-45
2022/06/16 02:02:00;;;;;;;;;;;;;;;;;;2090864;28;19921;-45
2022/06/16 02:03:01;;;;;;;;;;;;;;;;;;2090849;28;19920;-45
2022/06/16 02:04:02;;;;;;;;;;;;;;;;;;2090719;28;19921;-45
2022/06/16 02:05:03;;;;;;;;;;;;;;;;;;2090872;28;20043;-45
2022/06/16 02:06:04;;;;;;;;;;;;;;;;;;2090654;28;19974;-46
2022/06/16 02:07:05;;;;;;;;;;;;;;;;;;2090820;28;19925;-45
2022/06/16 02:08:06;;;;;;;;;;;;;;;;;;2090863;28;19921;-45
2022/06/16 02:09:07;;;;;;;;;;;;;;;;;;2090619;28;19920;-46
2022/06/16 02:10:07;;;;;;;;;;;;;;;;;;2090663;28;20275;-46
2022/06/16 02:11:08;;;;;;;;;;;;;;;;;;2088206;28;19972;-45
2022/06/16 02:12:09;;;;;;;;;;;;;;;;;;2082718;28;19920;-45
2022/06/16 02:13:11;;;;;;;;;;;;;;;;;;2082306;28;19928;-45
2022/06/16 02:14:11;;;;;;;;;;;;;;;;;;2082619;28;20381;-45
2022/06/16 02:15:12;;;;;;;;;;;;;;;;;;2082893;28;20000;-43
2022/06/16 02:16:13;;;;;;;;;;;;;;;;;;2082507;28;20011;-43
2022/06/16 02:17:14;;;;;;;;;;;;;;;;;;2082645;28;19952;-44
2022/06/16 02:18:15;;;;;;;;;;;;;;;;;;2082299;28;20054;-43
2022/06/16 02:19:16;;;;;;;;;;;;;;;;;;2082613;28;19925;-44
2022/06/16 02:20:17;;;;;;;;;;;;;;;;;;2082599;28;20441;-46
2022/06/16 02:21:18;;;;;;;;;;;;;;;;;;2082379;28;19964;-45
2022/06/16 02:22:18;;;;;;;;;;;;;;;;;;2082391;28;20055;-45
2022/06/16 02:23:19;;;;;;;;;;;;;;;;;;2082467;28;20290;-45
2022/06/16 02:24:20;;;;;;;;;;;;;;;;;;2082505;28;19967;-46
2022/06/16 02:25:21;;;;;;;;;;;;;;;;;;2082482;28;20015;-46
2022/06/16 02:26:22;;;;;;;;;;;;;;;;;;2082408;28;20004;-46
2022/06/16 02:27:23;;;;;;;;;;;;;;;;;;2082307;28;20007;-45
2022/06/16 02:28:24;;;;;;;;;;;;;;;;;;2082436;28;19921;-46
2022/06/16 02:29:26;;;;;;;;;;;;;;;;;;2082353;28;19921;-45
2022/06/16 02:30:27;;;;;;;;;;;;;;;;;;2082325;28;19999;-46
2022/06/16 02:31:28;;;;;;;;;;;;;;;;;;2082661;28;19960;-45
2022/06/16 02:32:31;;;;;;;;;;;;;;;;;;2082755;28;19921;-43
2022/06/16 02:33:31;;;;;;;;;;;;;;;;;;2082441;28;20420;-43
2022/06/16 02:34:32;;;;;;;;;;;;;;;;;;2082281;28;19921;-43
2022/06/16 02:35:33;;;;;;;;;;;;;;;;;;2082268;28;19928;-44
2022/06/16 02:36:35;;;;;;;;;;;;;;;;;;2082239;28;19936;-43
2022/06/16 02:37:35;;;;;;;;;;;;;;;;;;2082377;28;19921;-43
2022/06/16 02:38:36;;;;;;;;;;;;;;;;;;2082336;28;20267;-43
2022/06/16 02:39:37;;;;;;;;;;;;;;;;;;2082288;28;19924;-43
2022/06/16 02:40:41;;;;;;;;;;;;;;;;;;2082460;28;20134;-43
2022/06/16 02:41:42;;;;;;;;;;;;;;;;;;2082237;28;19921;-43
2022/06/16 02:42:43;;;;;;;;;;;;;;;;;;2082152;28;20421;-43
2022/06/16 02:43:44;;;;;;;;;;;;;;;;;;2082398;28;19921;-44
2022/06/16 02:44:45;;;;;;;;;;;;;;;;;;2082213;28;20282;-43
2022/06/16 02:45:46;;;;;;;;;;;;;;;;;;2090137;28;20359;-45
2022/06/16 02:46:47;;;;;;;;;;;;;;;;;;2090779;28;19921;-46
2022/06/16 02:47:48;;;;;;;;;;;;;;;;;;2090621;28;19921;-45
2022/06/16 02:48:49;;;;;;;;;;;;;;;;;;2090478;28;19970;-45
2022/06/16 02:49:50;;;;;;;;;;;;;;;;;;2089734;28;19959;-46
2022/06/16 02:50:51;;;;;;;;;;;;;;;;;;2090322;28;19921;-45
2022/06/16 02:51:52;;;;;;;;;;;;;;;;;;2090324;28;20302;-46
2022/06/16 02:52:53;;;;;;;;;;;;;;;;;;2090562;28;19995;-45
2022/06/16 02:53:57;;;;;;;;;;;;;;;;;;2090891;28;20016;-45
2022/06/16 02:55:00;;;;;;;;;;;;;;;;;;2090358;28;19966;-47
2022/06/16 02:56:00;;;;;;;;;;;;;;;;;;2090354;28;19956;-47
2022/06/16 02:57:03;;;;;;;;;;;;;;;;;;2090610;28;20407;-44
2022/06/16 02:58:04;;;;;;;;;;;;;;;;;;2090362;28;19964;-43
2022/06/16 02:59:05;;;;;;;;;;;;;;;;;;2090173;28;19921;-45
2022/06/16 03:00:07;;;;;;;;;;;;;;;;;;2090370;28;19990;-45
2022/06/16 03:01:09;;;;;;;;;;;;;;;;;;2090402;28;20003;-45
2022/06/16 03:02:11;;;;;;;;;;;;;;;;;;2090397;28;20015;-45
2022/06/16 03:03:12;;;;;;;;;;;;;;;;;;2090372;28;19969;-46
2022/06/16 03:04:14;;;;;;;;;;;;;;;;;;2090464;28;19982;-45
2022/06/16 03:05:15;;;;;;;;;;;;;;;;;;2090337;28;20297;-45
2022/06/16 03:06:17;;;;;;;;;;;;;;;;;;2090547;28;19959;-43
2022/06/16 03:07:18;;;;;;;;;;;;;;;;;;2090487;28;20007;-45
2022/06/16 03:08:19;;;;;;;;;;;;;;;;;;2090471;28;19920;-47
2022/06/16 03:09:20;;;;;;;;;;;;;;;;;;2090409;28;20019;-46
2022/06/16 03:11:36;;;;;;;;;;;;;;;;;;2089291;28;20015;-45
2022/06/16 03:12:37;;;;;;;;;;;;;;;;;;2090467;28;19960;-45
2022/06/16 03:13:38;;;;;;;;;;;;;;;;;;2090251;28;20007;-46
2022/06/16 03:14:39;;;;;;;;;;;;;;;;;;2090414;28;20007;-45
2022/06/16 03:15:40;;;;;;;;;;;;;;;;;;2090462;28;20296;-46
2022/06/16 03:16:41;;;;;;;;;;;;;;;;;;2090089;28;19924;-46
2022/06/16 03:17:42;;;;;;;;;;;;;;;;;;2090283;28;20051;-46
2022/06/16 03:18:42;;;;;;;;;;;;;;;;;;2090300;28;19921;-46
2022/06/16 03:19:44;;;;;;;;;;;;;;;;;;2090332;28;20390;-46
2022/06/16 03:20:45;;;;;;;;;;;;;;;;;;2090152;28;20015;-45
2022/06/16 03:21:46;;;;;;;;;;;;;;;;;;2090440;28;20293;-45
2022/06/16 03:22:46;;;;;;;;;;;;;;;;;;2090156;28;19920;-46
2022/06/16 03:23:47;;;;;;;;;;;;;;;;;;2090485;28;19986;-43
2022/06/16 03:24:48;;;;;;;;;;;;;;;;;;2090327;28;20015;-42
2022/06/16 03:25:49;;;;;;;;;;;;;;;;;;2090029;28;19920;-43
2022/06/16 03:26:50;;;;;;;;;;;;;;;;;;2090239;28;19931;-44
2022/06/16 03:27:51;;;;;;;;;;;;;;;;;;2090131;28;20020;-43
2022/06/16 03:28:52;;;;;;;;;;;;;;;;;;2090101;28;19971;-42
2022/06/16 03:29:53;;;;;;;;;;;;;;;;;;2090224;28;19920;-43
2022/06/16 03:30:54;;;;;;;;;;;;;;;;;;2090278;28;19924;-44
2022/06/16 03:31:55;;;;;;;;;;;;;;;;;;2090173;28;19927;-42
2022/06/16 03:32:56;;;;;;;;;;;;;;;;;;2090066;28;19921;-43
2022/06/16 03:33:57;;;;;;;;;;;;;;;;;;2090359;28;19921;-45
2022/06/16 03:34:58;;;;;;;;;;;;;;;;;;2090547;28;19925;-42
2022/06/16 03:35:59;;;;;;;;;;;;;;;;;;2090115;28;20019;-42
2022/06/16 03:37:00;;;;;;;;;;;;;;;;;;2090115;28;19928;-42
2022/06/16 03:38:01;;;;;;;;;;;;;;;;;;2090131;28;20306;-42
2022/06/16 03:39:02;;;;;;;;;;;;;;;;;;2090088;28;19920;-43
2022/06/16 03:40:03;;;;;;;;;;;;;;;;;;2090258;28;20007;-42
2022/06/16 03:41:04;;;;;;;;;;;;;;;;;;2089823;28;19972;-44
2022/06/16 03:42:05;;;;;;;;;;;;;;;;;;2090023;28;20405;-43
2022/06/16 03:43:08;;;;;;;;;;;;;;;;;;2090061;28;19920;-42
2022/06/16 03:44:08;;;;;;;;;;;;;;;;;;2090227;28;20015;-42
2022/06/16 03:45:10;;;;;;;;;;;;;;;;;;2090134;28;19948;-43
2022/06/16 03:46:12;;;;;;;;;;;;;;;;;;2090003;28;19925;-43
2022/06/16 03:47:14;;;;;;;;;;;;;;;;;;2090028;28;20496;-44
2022/06/16 03:48:15;;;;;;;;;;;;;;;;;;2090142;28;20382;-43
2022/06/16 03:49:16;;;;;;;;;;;;;;;;;;2089976;28;20011;-43
2022/06/16 03:50:17;;;;;;;;;;;;;;;;;;2090289;28;19921;-45
2022/06/16 03:51:19;;;;;;;;;;;;;;;;;;2090252;28;20263;-43
2022/06/16 03:52:19;;;;;;;;;;;;;;;;;;2089943;28;20396;-44
2022/06/16 03:53:20;;;;;;;;;;;;;;;;;;2089974;28;19959;-43
2022/06/16 03:54:21;;;;;;;;;;;;;;;;;;2090067;28;19927;-43
2022/06/16 03:55:22;;;;;;;;;;;;;;;;;;2090133;28;20297;-43
2022/06/16 03:56:23;;;;;;;;;;;;;;;;;;2089913;28;19920;-44
2022/06/16 03:57:24;;;;;;;;;;;;;;;;;;2090141;28;19920;-43
2022/06/16 03:58:25;;;;;;;;;;;;;;;;;;2090212;28;20035;-43
2022/06/16 03:59:26;;;;;;;;;;;;;;;;;;2090148;28;20007;-43
2022/06/16 04:00:27;;;;;;;;;;;;;;;;;;2090381;28;19921;-45
2022/06/16 04:01:28;;;;;;;;;;;;;;;;;;2089744;28;20373;-45
2022/06/16 04:02:28;;;;;;;;;;;;;;;;;;2090131;28;20006;-46
2022/06/16 04:04:49;;;;;;;;;;;;;;;;;;2089356;28;20016;-45
2022/06/16 04:05:50;;;;;;;;;;;;;;;;;;2089273;28;19927;-45
2022/06/16 04:06:51;;;;;;;;;;;;;;;;;;2089727;28;19946;-42
2022/06/16 04:07:52;;;;;;;;;;;;;;;;;;2090711;28;19960;-46
2022/06/16 04:08:53;;;;;;;;;;;;;;;;;;2089978;28;19921;-45
2022/06/16 04:09:54;;;;;;;;;;;;;;;;;;2090114;28;20012;-46
2022/06/16 04:10:55;;;;;;;;;;;;;;;;;;2090046;28;19920;-44
2022/06/16 04:11:56;;;;;;;;;;;;;;;;;;2089947;28;20019;-45
2022/06/16 04:12:57;;;;;;;;;;;;;;;;;;2089839;28;20443;-43
2022/06/16 04:14:00;;;;;;;;;;;;;;;;;;2089925;28;19921;-42
2022/06/16 04:15:01;;;;;;;;;;;;;;;;;;2089929;28;20349;-43
2022/06/16 04:16:02;;;;;;;;;;;;;;;;;;2090037;28;20000;-44
2022/06/16 04:17:03;;;;;;;;;;;;;;;;;;2089770;28;20318;-43
2022/06/16 04:18:03;;;;;;;;;;;;;;;;;;2090433;28;19921;-44
2022/06/16 04:19:04;;;;;;;;;;;;;;;;;;2090102;28;19920;-43
2022/06/16 04:20:14;;;;;;;;;;;;;;;;;;2089840;28;19921;-43
2022/06/16 04:21:15;;;;;;;;;;;;;;;;;;2089880;28;20007;-43
2022/06/16 04:22:16;;;;;;;;;;;;;;;;;;2089874;28;20359;-44
2022/06/16 04:23:17;;;;;;;;;;;;;;;;;;2089942;28;19921;-43
2022/06/16 04:24:18;;;;;;;;;;;;;;;;;;2089898;28;19920;-43
2022/06/16 04:25:19;;;;;;;;;;;;;;;;;;2089839;28;19925;-44
2022/06/16 04:26:20;;;;;;;;;;;;;;;;;;2089915;28;20012;-43
2022/06/16 04:27:20;;;;;;;;;;;;;;;;;;2089810;28;19932;-43
2022/06/16 04:28:21;;;;;;;;;;;;;;;;;;2089872;28;19920;-42
2022/06/16 04:29:24;;;;;;;;;;;;;;;;;;2089788;28;20292;-45
2022/06/16 04:30:25;;;;;;;;;;;;;;;;;;2090349;28;20357;-42
2022/06/16 04:31:26;;;;;;;;;;;;;;;;;;2089854;28;20023;-43
2022/06/16 04:32:27;;;;;;;;;;;;;;;;;;2089818;28;19920;-44
2022/06/16 04:33:28;;;;;;;;;;;;;;;;;;2090095;28;19928;-42
2022/06/16 04:34:29;;;;;;;;;;;;;;;;;;2089822;28;20114;-44
2022/06/16 04:35:30;;;;;;;;;;;;;;;;;;2089984;28;20730;-42
2022/06/16 04:36:31;;;;;;;;;;;;;;;;;;2089807;28;19924;-43
2022/06/16 04:37:32;;;;;;;;;;;;;;;;;;2089729;28;20301;-45
2022/06/16 04:38:33;;;;;;;;;;;;;;;;;;2089977;28;19965;-44
2022/06/16 04:39:34;;;;;;;;;;;;;;;;;;2089825;28;19928;-44
2022/06/16 04:40:36;;;;;;;;;;;;;;;;;;2089982;28;20356;-46
2022/06/16 04:41:36;;;;;;;;;;;;;;;;;;2089938;28;20437;-46
2022/06/16 04:42:37;;;;;;;;;;;;;;;;;;2089785;28;20011;-45
2022/06/16 04:43:38;;;;;;;;;;;;;;;;;;2090021;28;19925;-46
2022/06/16 04:44:40;;;;;;;;;;;;;;;;;;2089847;28;20368;-45
2022/06/16 04:45:41;;;;;;;;;;;;;;;;;;2089853;28;19971;-45
2022/06/16 04:46:42;;;;;;;;;;;;;;;;;;2089975;28;19983;-48
2022/06/16 04:47:43;;;;;;;;;;;;;;;;;;2089738;28;20011;-46
2022/06/16 04:48:44;;;;;;;;;;;;;;;;;;2089681;28;20354;-44
2022/06/16 04:49:49;;;;;;;;;;;;;;;;;;2090011;28;19925;-46
2022/06/16 04:50:49;;;;;;;;;;;;;;;;;;2089562;28;20442;-45
2022/06/16 04:51:51;;;;;;;;;;;;;;;;;;2089831;28;20403;-45
2022/06/16 04:52:52;;;;;;;;;;;;;;;;;;2089959;28;20004;-43
2022/06/16 04:53:52;;;;;;;;;;;;;;;;;;2089553;28;19920;-43
2022/06/16 04:54:53;;;;;;;;;;;;;;;;;;2089819;28;19967;-43
2022/06/16 04:56:00;;;;;;;;;;;;;;;;;;2090023;28;19931;-45
2022/06/16 04:57:01;;;;;;;;;;;;;;;;;;2089564;28;20431;-45
2022/06/16 04:58:02;;;;;;;;;;;;;;;;;;2089882;28;20019;-46
2022/06/16 04:59:03;;;;;;;;;;;;;;;;;;2089723;28;19928;-42
2022/06/16 05:00:04;;;;;;;;;;;;;;;;;;2089782;28;20333;-44
2022/06/16 05:01:24;;;;;;;;;;;;;;;;;;2089605;28;19921;-45
2022/06/16 05:02:24;;;;;;;;;;;;;;;;;;2089619;28;19920;-45
2022/06/16 05:03:26;;;;;;;;;;;;;;;;;;2089551;28;20298;-42
2022/06/16 05:04:26;;;;;;;;;;;;;;;;;;2089568;28;19921;-44
2022/06/16 05:05:27;;;;;;;;;;;;;;;;;;2089771;28;20007;-46
2022/06/16 05:06:28;;;;;;;;;;;;;;;;;;2089685;28;19970;-43
2022/06/16 05:07:29;;;;;;;;;;;;;;;;;;2089798;28;19932;-45
2022/06/16 05:08:30;;;;;;;;;;;;;;;;;;2089670;28;19982;-45
2022/06/16 05:09:31;;;;;;;;;;;;;;;;;;2089721;28;19931;-47
2022/06/16 05:10:31;;;;;;;;;;;;;;;;;;2089723;28;20011;-45
2022/06/16 05:11:33;;;;;;;;;;;;;;;;;;2083812;28;20382;-47
2022/06/16 05:12:33;;;;;;;;;;;;;;;;;;2081309;28;20357;-46
2022/06/16 05:13:34;;;;;;;;;;;;;;;;;;2080729;28;19921;-46
2022/06/16 05:14:35;;;;;;;;;;;;;;;;;;2081504;28;19921;-46
2022/06/16 05:15:36;;;;;;;;;;;;;;;;;;2081718;28;19986;-46
2022/06/16 05:16:37;;;;;;;;;;;;;;;;;;2081343;28;19928;-46
2022/06/16 05:17:38;;;;;;;;;;;;;;;;;;2081651;28;19924;-44
2022/06/16 05:18:39;;;;;;;;;;;;;;;;;;2081555;28;20420;-43
2022/06/16 05:19:40;;;;;;;;;;;;;;;;;;2081463;28;19928;-43
2022/06/16 05:20:41;;;;;;;;;;;;;;;;;;2081450;28;19925;-43
2022/06/16 05:21:43;;;;;;;;;;;;;;;;;;2081162;28;19975;-44
2022/06/16 05:22:43;;;;;;;;;;;;;;;;;;2081478;28;20441;-43
2022/06/16 05:23:45;;;;;;;;;;;;;;;;;;2081418;28;19971;-43
2022/06/16 05:24:46;;;;;;;;;;;;;;;;;;2081450;28;20027;-43
2022/06/16 05:25:49;;;;;;;;;;;;;;;;;;2081382;28;19924;-45
2022/06/16 05:26:50;;;;;;;;;;;;;;;;;;2081515;28;19925;-45
2022/06/16 05:27:52;;;;;;;;;;;;;;;;;;2081417;28;19931;-43
2022/06/16 05:28:53;;;;;;;;;;;;;;;;;;2081361;28;20018;-46
2022/06/16 05:29:54;;;;;;;;;;;;;;;;;;2081306;28;19921;-46
2022/06/16 05:30:55;;;;;;;;;;;;;;;;;;2081240;28;20017;-46
2022/06/16 05:31:56;;;;;;;;;;;;;;;;;;2081314;28;19921;-45
2022/06/16 05:33:00;;;;;;;;;;;;;;;;;;2081363;28;19979;-45
2022/06/16 05:34:01;;;;;;;;;;;;;;;;;;2084764;28;20036;-43
2022/06/16 05:35:02;;;;;;;;;;;;;;;;;;2089880;28;20259;-42
2022/06/16 05:36:03;;;;;;;;;;;;;;;;;;2089302;28;20377;-45
2022/06/16 05:37:04;;;;;;;;;;;;;;;;;;2089587;28;19921;-43
2022/06/16 05:38:05;;;;;;;;;;;;;;;;;;2089645;28;20003;-43
2022/06/16 05:39:06;;;;;;;;;;;;;;;;;;2089714;28;20008;-47
2022/06/16 05:40:07;;;;;;;;;;;;;;;;;;2089450;28;20422;-45
2022/06/16 05:41:10;;;;;;;;;;;;;;;;;;2089770;28;19921;-46
2022/06/16 05:42:11;;;;;;;;;;;;;;;;;;2089733;28;20001;-44
2022/06/16 05:43:12;;;;;;;;;;;;;;;;;;2089781;28;19956;-42
2022/06/16 05:44:13;;;;;;;;;;;;;;;;;;2089407;28;19920;-42
2022/06/16 05:45:15;;;;;;;;;;;;;;;;;;2089412;28;20015;-43
2022/06/16 05:46:16;;;;;;;;;;;;;;;;;;2089343;28;20356;-43
2022/06/16 05:47:17;;;;;;;;;;;;;;;;;;2089411;28;19920;-42
2022/06/16 05:48:18;;;;;;;;;;;;;;;;;;2089828;28;20430;-46
2022/06/16 05:49:19;;;;;;;;;;;;;;;;;;2089354;28;19951;-45
2022/06/16 05:50:22;;;;;;;;;;;;;;;;;;2089501;28;19929;-46
2022/06/16 05:51:23;;;;;;;;;;;;;;;;;;2089490;28;20011;-45
2022/06/16 05:52:24;;;;;;;;;;;;;;;;;;2089475;28;20036;-48
2022/06/16 05:53:25;;;;;;;;;;;;;;;;;;2089327;28;20016;-46
2022/06/16 05:54:26;;;;;;;;;;;;;;;;;;2089706;28;20385;-42
2022/06/16 05:55:27;;;;;;;;;;;;;;;;;;2089909;28;20187;-43
2022/06/16 05:56:28;;;;;;;;;;;;;;;;;;2089470;28;19956;-43
2022/06/16 05:57:28;;;;;;;;;;;;;;;;;;2089373;28;20324;-44
2022/06/16 05:58:29;;;;;;;;;;;;;;;;;;2089529;28;19927;-46
2022/06/16 05:59:30;;;;;;;;;;;;;;;;;;2089391;28;19928;-45
2022/06/16 06:00:31;;;;;;;;;;;;;;;;;;2089417;28;19921;-45
2022/06/16 06:01:32;;;;;;;;;;;;;;;;;;2089359;28;20073;-48
2022/06/16 06:02:33;;;;;;;;;;;;;;;;;;2089620;28;19927;-46
2022/06/16 06:03:34;;;;;;;;;;;;;;;;;;2090017;28;19920;-47
2022/06/16 06:04:35;;;;;;;;;;;;;;;;;;2089761;28;20004;-46
2022/06/16 06:05:36;;;;;;;;;;;;;;;;;;2089393;28;19927;-45
2022/06/16 06:06:37;;;;;;;;;;;;;;;;;;2089675;28;19921;-44
2022/06/16 06:16:58;;;;;;;;;;;;;;;;;;2081023;28;19932;-47
2022/06/16 06:18:00;;;;;;;;;;;;;;;;;;2081354;28;19956;-48
2022/06/16 06:19:23;;;;;;;;;;;;;;;;;;2080943;28;19972;-46
2022/06/16 06:20:23;;;;;;;;;;;;;;;;;;2081174;28;20003;-48
2022/06/16 06:22:40;;;;;;;;;;;;;;;;;;2080974;28;20067;-47
2022/06/16 06:23:42;;;;;;;;;;;;;;;;;;2081273;28;19928;-47
2022/06/16 06:24:43;;;;;;;;;;;;;;;;;;2081126;28;20040;-47
2022/06/16 06:25:43;;;;;;;;;;;;;;;;;;2082118;28;20282;-48
2022/06/16 06:26:44;;;;;;;;;;;;;;;;;;2082504;28;19921;-49
2022/06/16 06:27:45;;;;;;;;;;;;;;;;;;2082359;28;20437;-46
2022/06/16 06:28:46;;;;;;;;;;;;;;;;;;2082732;28;20063;-44
2022/06/16 06:29:47;;;;;;;;;;;;;;;;;;2082369;28;19921;-45
2022/06/16 06:30:48;;;;;;;;;;;;;;;;;;2094827;28;19999;-45
2022/06/16 06:31:49;;;;;;;;;;;;;;;;;;2099084;28;19920;-45
2022/06/16 06:32:50;;;;;;;;;;;;;;;;;;2098884;28;20351;-46
2022/06/16 06:33:51;;;;;;;;;;;;;;;;;;2098800;28;19924;-46
2022/06/16 06:34:52;;;;;;;;;;;;;;;;;;2099115;28;19964;-44
2022/06/16 06:35:54;;;;;;;;;;;;;;;;;;2098894;28;19928;-46
2022/06/16 06:36:55;;;;;;;;;;;;;;;;;;2099082;28;20011;-45
2022/06/16 06:37:57;;;;;;;;;;;;;;;;;;2099015;28;20400;-43
2022/06/16 06:38:58;;;;;;;;;;;;;;;;;;2098869;28;19998;-43
2022/06/16 06:39:59;;;;;;;;;;;;;;;;;;2099205;28;20285;-45
2022/06/16 06:41:00;;;;;;;;;;;;;;;;;;2098799;28;19943;-45
2022/06/16 06:42:03;;;;;;;;;;;;;;;;;;2098993;28;19924;-48
2022/06/16 06:43:04;;;;;;;;;;;;;;;;;;2099012;28;19974;-44
2022/06/16 06:44:05;;;;;;;;;;;;;;;;;;2098815;28;20377;-43
2022/06/16 06:45:06;;;;;;;;;;;;;;;;;;2098927;28;20003;-46
2022/06/16 06:46:08;;;;;;;;;;;;;;;;;;2098758;28;19959;-45
2022/06/16 06:47:09;;;;;;;;;;;;;;;;;;2098753;28;19920;-46
2022/06/16 06:48:10;;;;;;;;;;;;;;;;;;2098783;28;19920;-45
2022/06/16 06:49:11;;;;;;;;;;;;;;;;;;2098921;28;19924;-46
2022/06/16 06:50:12;;;;;;;;;;;;;;;;;;2098816;28;20007;-45
2022/06/16 06:51:13;;;;;;;;;;;;;;;;;;2099092;28;19920;-45
2022/06/16 06:52:14;;;;;;;;;;;;;;;;;;2098654;28;20366;-48
2022/06/16 06:53:16;;;;;;;;;;;;;;;;;;2098629;28;20305;-43
2022/06/16 06:54:18;;;;;;;;;;;;;;;;;;2098949;28;19966;-48
2022/06/16 06:55:19;;;;;;;;;;;;;;;;;;2098683;28;20422;-48
2022/06/16 06:56:19;;;;;;;;;;;;;;;;;;2098982;28;20434;-42
2022/06/16 06:57:20;;;;;;;;;;;;;;;;;;2098847;28;19960;-48
2022/06/16 06:58:21;;;;;;;;;;;;;;;;;;2098944;28;20011;-49
2022/06/16 06:59:22;;;;;;;;;;;;;;;;;;2098644;28;19920;-46
2022/06/16 07:00:23;;;;;;;;;;;;;;;;;;2098725;28;20019;-46
2022/06/16 07:01:24;;;;;;;;;;;;;;;;;;2098559;28;20149;-45
2022/06/16 07:02:25;;;;;;;;;;;;;;;;;;2098805;28;20167;-50
2022/06/16 07:03:26;;;;;;;;;;;;;;;;;;2098943;28;20025;-45
2022/06/16 07:04:27;;;;;;;;;;;;;;;;;;2098616;28;20443;-49
2022/06/16 07:05:28;;;;;;;;;;;;;;;;;;2098697;28;19981;-46
2022/06/16 07:06:29;;;;;;;;;;;;;;;;;;2098718;28;19920;-46
2022/06/16 07:07:30;;;;;;;;;;;;;;;;;;2098806;28;20015;-44
2022/06/16 07:08:31;;;;;;;;;;;;;;;;;;2098579;28;19978;-44
2022/06/16 07:09:32;;;;;;;;;;;;;;;;;;2098964;28;20352;-47
2022/06/16 07:10:33;;;;;;;;;;;;;;;;;;2098988;28;20004;-44
2022/06/16 07:11:34;;;;;;;;;;;;;;;;;;2092822;28;19959;-45
2022/06/16 07:12:35;;;;;;;;;;;;;;;;;;2090422;28;19920;-43
2022/06/16 07:13:36;;;;;;;;;;;;;;;;;;2090358;28;20366;-43
2022/06/16 07:14:36;;;;;;;;;;;;;;;;;;2090301;28;20407;-42
2022/06/16 07:15:37;;;;;;;;;;;;;;;;;;2090582;28;20142;-49
2022/06/16 07:16:38;;;;;;;;;;;;;;;;;;2090734;28;19979;-43